createdAt,value
2023-03-27T00:00:03.260Z,965.50
2023-03-27T00:01:03.329Z,965.36
2023-03-27T00:02:03.796Z,965.41
2023-03-27T00:03:03.992Z,965.33
2023-03-27T00:04:04.020Z,965.44
2023-03-27T00:05:04.046Z,965.47
2023-03-27T00:06:02.931Z,965.47
2023-03-27T00:07:03.034Z,965.53
2023-03-27T00:08:03.177Z,965.53
2023-03-27T00:09:03.155Z,965.66
2023-03-27T00:10:03.383Z,965.66
2023-03-27T00:11:03.438Z,965.53
2023-03-27T00:12:03.534Z,965.69
2023-03-27T00:13:03.596Z,965.78
2023-03-27T00:14:03.720Z,965.57
2023-03-27T00:15:03.746Z,965.73
2023-03-27T00:16:03.759Z,965.76
2023-03-27T00:17:03.792Z,965.62
2023-03-27T00:18:03.889Z,965.84
2023-03-27T00:19:03.859Z,965.79
2023-03-27T00:20:03.802Z,965.71
2023-03-27T00:21:03.951Z,965.85
2023-03-27T00:22:03.855Z,965.74
2023-03-27T00:23:02.979Z,965.85
2023-03-27T00:24:02.919Z,965.80
2023-03-27T00:25:03.105Z,965.82
2023-03-27T00:26:03.159Z,965.85
2023-03-27T00:27:03.371Z,965.97
2023-03-27T00:28:03.411Z,965.97
2023-03-27T00:29:03.526Z,965.94
2023-03-27T00:30:03.529Z,966.03
2023-03-27T00:31:03.661Z,965.92
2023-03-27T00:32:03.598Z,965.94
2023-03-27T00:33:03.788Z,966.11
2023-03-27T00:34:03.611Z,965.98
2023-03-27T00:35:03.591Z,966.17
2023-03-27T00:36:03.948Z,966.12
2023-03-27T00:37:03.679Z,966.01
2023-03-27T00:38:03.772Z,966.15
2023-03-27T00:39:03.873Z,966.12
2023-03-27T00:40:03.805Z,966.15
2023-03-27T00:41:04.062Z,966.18
2023-03-27T00:42:02.942Z,966.24
2023-03-27T00:43:03.105Z,966.27
2023-03-27T00:44:03.104Z,966.30
2023-03-27T00:45:03.167Z,966.33
2023-03-27T00:46:03.221Z,966.22
2023-03-27T00:47:03.186Z,966.44
2023-03-27T00:48:03.332Z,966.33
2023-03-27T00:49:03.294Z,966.36
2023-03-27T00:50:03.329Z,966.39
2023-03-27T00:51:03.420Z,966.30
2023-03-27T00:52:03.362Z,966.42
2023-03-27T00:53:03.354Z,966.42
2023-03-27T00:54:03.420Z,966.33
2023-03-27T00:55:03.577Z,966.53
2023-03-27T00:56:03.494Z,966.47
2023-03-27T00:57:03.698Z,966.44
2023-03-27T00:58:03.689Z,966.53
2023-03-27T00:59:03.694Z,966.39
2023-03-27T01:00:03.794Z,966.42
2023-03-27T01:01:03.882Z,966.58
2023-03-27T01:02:03.808Z,966.47
2023-03-27T01:03:04.014Z,966.47
2023-03-27T01:04:03.768Z,966.39
2023-03-27T01:05:03.796Z,966.44
2023-03-27T01:06:03.942Z,966.55
2023-03-27T01:07:03.854Z,966.47
2023-03-27T01:08:03.937Z,966.47
2023-03-27T01:09:03.868Z,966.53
2023-03-27T01:10:03.883Z,966.53
2023-03-27T01:11:03.010Z,966.47
2023-03-27T01:12:03.194Z,966.58
2023-03-27T01:13:03.158Z,966.64
2023-03-27T01:14:03.209Z,966.70
2023-03-27T01:15:03.439Z,966.59
2023-03-27T01:16:03.543Z,966.59
2023-03-27T01:17:03.509Z,966.59
2023-03-27T01:18:03.534Z,966.70
2023-03-27T01:19:03.576Z,966.64
2023-03-27T01:20:03.710Z,966.67
2023-03-27T01:21:03.729Z,966.81
2023-03-27T01:22:02.932Z,966.67
2023-03-27T01:23:03.017Z,966.70
2023-03-27T01:24:03.009Z,966.81
2023-03-27T01:25:02.999Z,966.76
2023-03-27T01:26:03.058Z,966.78
2023-03-27T01:27:03.127Z,966.90
2023-03-27T01:28:03.354Z,966.73
2023-03-27T01:29:03.225Z,966.76
2023-03-27T01:30:03.276Z,966.76
2023-03-27T01:31:03.340Z,966.73
2023-03-27T01:32:03.342Z,966.81
2023-03-27T01:33:03.537Z,966.70
2023-03-27T01:34:03.539Z,966.79
2023-03-27T01:35:06.857Z,966.93
2023-03-27T01:36:03.522Z,966.79
2023-03-27T01:37:03.553Z,966.90
2023-03-27T01:38:03.533Z,966.96
2023-03-27T01:39:03.584Z,966.84
2023-03-27T01:40:03.468Z,967.03
2023-03-27T01:41:03.572Z,966.84
2023-03-27T01:42:03.533Z,966.93
2023-03-27T01:43:03.739Z,966.98
2023-03-27T01:44:03.642Z,966.95
2023-03-27T01:45:03.708Z,967.01
2023-03-27T01:46:03.749Z,967.01
2023-03-27T01:47:03.735Z,967.06
2023-03-27T01:48:03.842Z,967.01
2023-03-27T01:49:03.793Z,966.96
2023-03-27T01:50:02.957Z,967.01
2023-03-27T01:51:02.972Z,967.14
2023-03-27T01:52:02.973Z,967.08
2023-03-27T01:53:03.123Z,967.03
2023-03-27T01:54:03.197Z,967.03
2023-03-27T01:55:03.221Z,967.17
2023-03-27T01:56:03.161Z,967.17
2023-03-27T01:57:03.401Z,967.11
2023-03-27T01:58:03.331Z,967.11
2023-03-27T01:59:03.239Z,967.41
2023-03-27T02:00:19.762Z,967.14
2023-03-27T02:01:03.378Z,967.32
2023-03-27T02:02:03.342Z,967.26
2023-03-27T02:03:03.556Z,967.26
2023-03-27T02:04:03.530Z,967.39
2023-03-27T02:05:03.662Z,967.29
2023-03-27T02:06:03.624Z,967.34
2023-03-27T02:07:03.594Z,967.39
2023-03-27T02:08:03.678Z,967.31
2023-03-27T02:09:03.847Z,967.48
2023-03-27T02:10:03.958Z,967.59
2023-03-27T02:11:02.991Z,967.59
2023-03-27T02:12:02.990Z,967.42
2023-03-27T02:13:03.146Z,967.51
2023-03-27T02:14:03.175Z,967.65
2023-03-27T02:15:25.554Z,967.65
2023-03-27T02:16:03.395Z,967.71
2023-03-27T02:17:03.541Z,967.63
2023-03-27T02:18:03.585Z,967.71
2023-03-27T02:19:03.678Z,967.77
2023-03-27T02:20:03.587Z,967.63
2023-03-27T02:21:03.608Z,967.69
2023-03-27T02:22:03.550Z,967.91
2023-03-27T02:23:03.752Z,967.83
2023-03-27T02:24:03.767Z,967.86
2023-03-27T02:25:03.856Z,967.88
2023-03-27T02:26:02.941Z,967.94
2023-03-27T02:27:02.914Z,968.00
2023-03-27T02:28:02.941Z,967.94
2023-03-27T02:29:02.959Z,968.06
2023-03-27T02:30:02.980Z,968.20
2023-03-27T02:31:34.957Z,968.03
2023-03-27T02:32:03.280Z,968.20
2023-03-27T02:33:03.301Z,968.17
2023-03-27T02:34:03.302Z,968.09
2023-03-27T02:35:03.270Z,968.17
2023-03-27T02:36:03.404Z,968.09
2023-03-27T02:37:03.274Z,968.21
2023-03-27T02:38:03.226Z,968.24
2023-03-27T02:39:03.323Z,968.24
2023-03-27T02:40:03.403Z,968.27
2023-03-27T02:41:03.317Z,968.35
2023-03-27T02:42:03.429Z,968.38
2023-03-27T02:43:03.359Z,968.47
2023-03-27T02:44:03.318Z,968.38
2023-03-27T02:45:03.449Z,968.44
2023-03-27T02:46:03.697Z,968.47
2023-03-27T02:47:03.629Z,968.58
2023-03-27T02:48:03.649Z,968.53
2023-03-27T02:49:03.468Z,968.70
2023-03-27T02:50:03.497Z,968.51
2023-03-27T02:51:03.461Z,968.53
2023-03-27T02:52:03.540Z,968.67
2023-03-27T02:53:03.709Z,968.56
2023-03-27T02:54:03.504Z,968.65
2023-03-27T02:55:03.471Z,968.67
2023-03-27T02:56:03.492Z,968.62
2023-03-27T02:57:03.691Z,968.65
2023-03-27T02:58:03.599Z,968.56
2023-03-27T02:59:03.463Z,968.68
2023-03-27T03:00:03.447Z,968.72
2023-03-27T03:01:03.469Z,968.72
2023-03-27T03:02:03.351Z,968.71
2023-03-27T03:03:03.576Z,968.65
2023-03-27T03:04:03.220Z,968.86
2023-03-27T03:05:03.176Z,968.78
2023-03-27T03:06:03.194Z,968.75
2023-03-27T03:07:03.210Z,968.81
2023-03-27T03:08:03.200Z,968.84
2023-03-27T03:09:03.118Z,968.86
2023-03-27T03:10:03.220Z,968.86
2023-03-27T03:11:03.170Z,968.81
2023-03-27T03:12:03.203Z,968.92
2023-03-27T03:13:03.287Z,969.03
2023-03-27T03:14:03.192Z,968.97
2023-03-27T03:15:03.364Z,968.97
2023-03-27T03:16:03.303Z,968.95
2023-03-27T03:17:03.393Z,968.97
2023-03-27T03:18:03.518Z,969.03
2023-03-27T03:19:03.310Z,969.09
2023-03-27T03:20:03.355Z,969.00
2023-03-27T03:21:03.344Z,969.08
2023-03-27T03:22:03.354Z,969.05
2023-03-27T03:23:03.424Z,969.11
2023-03-27T03:24:03.502Z,968.97
2023-03-27T03:25:03.482Z,969.14
2023-03-27T03:26:03.478Z,969.03
2023-03-27T03:27:03.450Z,969.05
2023-03-27T03:28:03.347Z,969.19
2023-03-27T03:29:03.500Z,969.17
2023-03-27T03:30:03.405Z,969.14
2023-03-27T03:31:03.495Z,969.19
2023-03-27T03:32:03.445Z,969.22
2023-03-27T03:33:03.362Z,969.42
2023-03-27T03:34:03.294Z,969.39
2023-03-27T03:35:03.349Z,969.42
2023-03-27T03:36:03.365Z,969.42
2023-03-27T03:37:03.295Z,969.45
2023-03-27T03:38:03.351Z,969.39
2023-03-27T03:39:03.302Z,969.50
2023-03-27T03:40:03.354Z,969.61
2023-03-27T03:41:03.262Z,969.61
2023-03-27T03:42:03.271Z,969.56
2023-03-27T03:43:03.284Z,969.56
2023-03-27T03:44:03.358Z,969.45
2023-03-27T03:45:03.242Z,969.36
2023-03-27T03:46:03.444Z,969.53
2023-03-27T03:47:03.364Z,969.56
2023-03-27T03:48:03.555Z,969.72
2023-03-27T03:49:03.447Z,969.61
2023-03-27T03:50:03.389Z,969.61
2023-03-27T03:51:03.340Z,969.70
2023-03-27T03:52:05.200Z,969.64
2023-03-27T03:53:03.431Z,969.70
2023-03-27T03:54:03.337Z,969.56
2023-03-27T03:55:03.340Z,969.78
2023-03-27T03:56:03.449Z,969.78
2023-03-27T03:57:04.008Z,969.78
2023-03-27T03:58:03.320Z,969.87
2023-03-27T03:59:03.666Z,970.00
2023-03-27T04:00:03.605Z,969.87
2023-03-27T04:01:03.493Z,969.89
2023-03-27T04:02:03.851Z,970.03
2023-03-27T04:03:03.820Z,970.06
2023-03-27T04:04:03.592Z,969.92
2023-03-27T04:05:10.391Z,970.08
2023-03-27T04:06:03.578Z,970.17
2023-03-27T04:07:03.667Z,970.20
2023-03-27T04:08:03.615Z,970.20
2023-03-27T04:09:03.744Z,970.22
2023-03-27T04:10:03.736Z,970.25
2023-03-27T04:11:03.817Z,970.31
2023-03-27T04:12:03.671Z,970.25
2023-03-27T04:13:03.683Z,970.25
2023-03-27T04:14:03.678Z,970.31
2023-03-27T04:15:03.634Z,970.25
2023-03-27T04:16:03.688Z,970.34
2023-03-27T04:17:03.632Z,970.31
2023-03-27T04:18:03.890Z,970.28
2023-03-27T04:19:03.670Z,970.37
2023-03-27T04:20:03.605Z,970.31
2023-03-27T04:21:03.635Z,970.52
2023-03-27T04:22:03.632Z,970.47
2023-03-27T04:23:03.500Z,970.53
2023-03-27T04:24:03.507Z,970.52
2023-03-27T04:25:03.864Z,970.50
2023-03-27T04:26:03.048Z,970.47
2023-03-27T04:27:03.033Z,970.64
2023-03-27T04:28:03.153Z,970.47
2023-03-27T04:29:03.110Z,970.66
2023-03-27T04:30:03.034Z,970.64
2023-03-27T04:31:03.176Z,970.58
2023-03-27T04:32:03.238Z,970.80
2023-03-27T04:33:06.788Z,970.66
2023-03-27T04:34:03.209Z,970.72
2023-03-27T04:35:03.254Z,970.64
2023-03-27T04:36:07.912Z,970.67
2023-03-27T04:37:03.187Z,970.86
2023-03-27T04:38:03.213Z,970.81
2023-03-27T04:39:03.157Z,970.92
2023-03-27T04:40:03.080Z,970.87
2023-03-27T04:41:03.171Z,970.90
2023-03-27T04:42:03.143Z,970.98
2023-03-27T04:43:03.299Z,970.95
2023-03-27T04:44:03.212Z,971.09
2023-03-27T04:45:03.333Z,971.07
2023-03-27T04:46:03.233Z,971.06
2023-03-27T04:47:03.331Z,971.12
2023-03-27T04:48:03.301Z,971.18
2023-03-27T04:49:03.297Z,971.13
2023-03-27T04:50:03.270Z,971.18
2023-03-27T04:51:03.390Z,971.24
2023-03-27T04:52:03.303Z,971.21
2023-03-27T04:53:03.303Z,971.35
2023-03-27T04:54:03.350Z,971.38
2023-03-27T04:55:03.458Z,971.47
2023-03-27T04:56:03.422Z,971.44
2023-03-27T04:57:03.695Z,971.38
2023-03-27T04:58:03.473Z,971.55
2023-03-27T04:59:03.551Z,971.52
2023-03-27T05:00:03.503Z,971.69
2023-03-27T05:01:03.656Z,971.67
2023-03-27T05:02:03.597Z,971.58
2023-03-27T05:03:03.876Z,971.72
2023-03-27T05:04:03.925Z,971.67
2023-03-27T05:05:03.710Z,971.78
2023-03-27T05:06:03.743Z,971.72
2023-03-27T05:07:03.698Z,971.61
2023-03-27T05:08:03.719Z,971.64
2023-03-27T05:09:03.740Z,971.83
2023-03-27T05:10:03.735Z,971.69
2023-03-27T05:11:03.837Z,971.81
2023-03-27T05:12:03.824Z,971.91
2023-03-27T05:13:03.865Z,971.86
2023-03-27T05:14:03.953Z,971.81
2023-03-27T05:15:02.936Z,971.76
2023-03-27T05:16:03.022Z,971.83
2023-03-27T05:17:03.082Z,971.86
2023-03-27T05:18:03.134Z,971.91
2023-03-27T05:19:03.238Z,971.91
2023-03-27T05:20:03.126Z,971.94
2023-03-27T05:21:03.216Z,971.86
2023-03-27T05:22:03.114Z,972.12
2023-03-27T05:23:03.158Z,972.06
2023-03-27T05:24:03.649Z,972.03
2023-03-27T05:25:03.708Z,972.23
2023-03-27T05:26:03.816Z,972.15
2023-03-27T05:27:03.776Z,972.12
2023-03-27T05:28:03.654Z,972.24
2023-03-27T05:29:03.747Z,972.21
2023-03-27T05:30:03.721Z,972.38
2023-03-27T05:31:03.664Z,972.41
2023-03-27T05:32:03.602Z,972.41
2023-03-27T05:33:03.814Z,972.52
2023-03-27T05:34:03.705Z,972.63
2023-03-27T05:35:03.573Z,972.63
2023-03-27T05:36:03.694Z,972.63
2023-03-27T05:37:03.763Z,972.72
2023-03-27T05:38:03.671Z,972.77
2023-03-27T05:39:03.642Z,972.83
2023-03-27T05:40:03.650Z,972.89
2023-03-27T05:41:03.512Z,972.92
2023-03-27T05:42:03.579Z,972.89
2023-03-27T05:43:03.515Z,972.84
2023-03-27T05:44:03.613Z,973.03
2023-03-27T05:45:03.551Z,973.01
2023-03-27T05:46:03.700Z,973.15
2023-03-27T05:47:03.609Z,973.01
2023-03-27T05:48:03.767Z,973.15
2023-03-27T05:49:03.688Z,973.18
2023-03-27T05:50:03.633Z,973.15
2023-03-27T05:51:03.861Z,973.15
2023-03-27T05:52:03.740Z,973.29
2023-03-27T05:53:03.696Z,973.32
2023-03-27T05:54:03.728Z,973.24
2023-03-27T05:55:03.738Z,973.32
2023-03-27T05:56:04.100Z,973.43
2023-03-27T05:57:03.914Z,973.43
2023-03-27T05:58:03.712Z,973.46
2023-03-27T05:59:03.798Z,973.54
2023-03-27T06:00:03.877Z,973.51
2023-03-27T06:01:03.790Z,973.43
2023-03-27T06:02:03.974Z,973.49
2023-03-27T06:03:04.164Z,973.49
2023-03-27T06:04:04.102Z,973.56
2023-03-27T06:05:03.840Z,973.54
2023-03-27T06:06:02.994Z,973.65
2023-03-27T06:07:03.043Z,973.87
2023-03-27T06:08:03.262Z,973.54
2023-03-27T06:09:03.204Z,973.62
2023-03-27T06:10:03.388Z,973.65
2023-03-27T06:11:03.266Z,973.54
2023-03-27T06:12:03.352Z,973.59
2023-03-27T06:13:03.490Z,973.70
2023-03-27T06:14:03.483Z,973.67
2023-03-27T06:15:03.396Z,973.54
2023-03-27T06:16:03.443Z,973.78
2023-03-27T06:17:03.422Z,973.66
2023-03-27T06:18:03.418Z,973.60
2023-03-27T06:19:03.294Z,973.59
2023-03-27T06:20:03.342Z,973.72
2023-03-27T06:21:03.249Z,973.60
2023-03-27T06:22:03.305Z,973.62
2023-03-27T06:23:03.406Z,973.63
2023-03-27T06:24:03.384Z,973.59
2023-03-27T06:25:03.373Z,973.61
2023-03-27T06:26:03.312Z,973.83
2023-03-27T06:27:03.322Z,973.76
2023-03-27T06:28:03.239Z,973.78
2023-03-27T06:29:08.990Z,973.80
2023-03-27T06:30:03.469Z,973.88
2023-03-27T06:31:03.420Z,973.84
2023-03-27T06:32:03.305Z,973.89
2023-03-27T06:33:03.491Z,973.99
2023-03-27T06:34:03.460Z,974.10
2023-03-27T06:35:03.515Z,973.92
2023-03-27T06:36:03.530Z,974.14
2023-03-27T06:37:03.479Z,974.22
2023-03-27T06:38:03.625Z,974.22
2023-03-27T06:39:03.499Z,974.27
2023-03-27T06:40:03.597Z,974.29
2023-03-27T06:41:03.537Z,974.48
2023-03-27T06:42:03.841Z,974.62
2023-03-27T06:43:03.722Z,974.75
2023-03-27T06:44:03.659Z,974.78
2023-03-27T06:45:03.559Z,974.78
2023-03-27T06:46:03.669Z,975.02
2023-03-27T06:47:03.745Z,974.99
2023-03-27T06:48:21.775Z,975.13
2023-03-27T06:49:03.795Z,975.16
2023-03-27T06:50:03.760Z,975.21
2023-03-27T06:51:03.889Z,975.23
2023-03-27T06:52:03.879Z,975.33
2023-03-27T06:53:07.958Z,975.36
2023-03-27T06:54:02.959Z,975.39
2023-03-27T06:55:03.076Z,975.48
2023-03-27T06:56:02.969Z,975.32
2023-03-27T06:57:03.945Z,975.47
2023-03-27T06:58:03.917Z,975.53
2023-03-27T06:59:03.879Z,975.56
2023-03-27T07:00:03.781Z,975.59
2023-03-27T07:01:03.843Z,975.70
2023-03-27T07:02:04.034Z,975.65
2023-03-27T07:03:03.955Z,975.68
2023-03-27T07:04:03.861Z,975.71
2023-03-27T07:05:05.827Z,975.97
2023-03-27T07:06:03.987Z,975.89
2023-03-27T07:07:03.854Z,975.92
2023-03-27T07:08:24.000Z,975.84
2023-03-27T07:09:03.041Z,975.87
2023-03-27T07:10:03.141Z,975.93
2023-03-27T07:11:12.733Z,975.93
2023-03-27T07:12:03.282Z,975.82
2023-03-27T07:13:03.261Z,975.91
2023-03-27T07:14:03.316Z,976.02
2023-03-27T07:15:03.401Z,976.05
2023-03-27T07:16:03.474Z,976.03
2023-03-27T07:17:03.571Z,976.00
2023-03-27T07:18:03.477Z,976.03
2023-03-27T07:19:03.430Z,975.92
2023-03-27T07:20:03.366Z,976.28
2023-03-27T07:21:03.303Z,976.03
2023-03-27T07:22:03.378Z,976.09
2023-03-27T07:23:03.366Z,976.29
2023-03-27T07:24:03.224Z,976.21
2023-03-27T07:25:03.271Z,976.12
2023-03-27T07:26:03.695Z,976.16
2023-03-27T07:27:03.247Z,976.13
2023-03-27T07:28:06.320Z,976.16
2023-03-27T07:29:03.255Z,976.30
2023-03-27T07:30:03.378Z,976.19
2023-03-27T07:31:13.524Z,976.25
2023-03-27T07:32:09.491Z,976.22
2023-03-27T07:33:03.573Z,976.28
2023-03-27T07:34:03.789Z,976.39
2023-03-27T07:35:03.475Z,976.42
2023-03-27T07:36:03.704Z,976.39
2023-03-27T07:37:03.495Z,976.41
2023-03-27T07:38:03.655Z,976.47
2023-03-27T07:39:03.152Z,976.47
2023-03-27T07:40:03.270Z,976.41
2023-03-27T07:41:03.219Z,976.38
2023-03-27T07:42:03.280Z,976.49
2023-03-27T07:43:03.318Z,976.43
2023-03-27T07:44:03.386Z,976.46
2023-03-27T07:45:04.860Z,976.48
2023-03-27T07:46:03.415Z,976.48
2023-03-27T07:47:03.321Z,976.60
2023-03-27T07:48:03.936Z,976.51
2023-03-27T07:49:03.856Z,976.37
2023-03-27T07:50:03.958Z,976.60
2023-03-27T07:51:14.514Z,976.48
2023-03-27T07:52:02.980Z,976.81
2023-03-27T07:53:03.030Z,976.79
2023-03-27T07:54:03.185Z,976.64
2023-03-27T07:55:03.215Z,976.73
2023-03-27T07:56:03.134Z,976.78
2023-03-27T07:57:03.458Z,976.75
2023-03-27T07:58:04.272Z,976.75
2023-03-27T07:59:03.124Z,976.87
2023-03-27T08:00:03.249Z,976.89
2023-03-27T08:01:03.465Z,976.86
2023-03-27T08:02:03.290Z,976.70
2023-03-27T08:03:03.634Z,976.86
2023-03-27T08:04:03.739Z,976.85
2023-03-27T08:05:03.670Z,976.69
2023-03-27T08:06:03.395Z,976.76
2023-03-27T08:07:03.358Z,976.96
2023-03-27T08:08:03.396Z,976.84
2023-03-27T08:09:03.456Z,976.78
2023-03-27T08:10:03.624Z,976.70
2023-03-27T08:11:03.607Z,976.70
2023-03-27T08:12:03.784Z,976.88
2023-03-27T08:13:03.086Z,976.85
2023-03-27T08:14:02.978Z,977.02
2023-03-27T08:15:03.019Z,976.96
2023-03-27T08:16:03.033Z,976.88
2023-03-27T08:17:16.766Z,976.88
2023-03-27T08:18:03.128Z,976.96
2023-03-27T08:19:03.046Z,976.99
2023-03-27T08:20:03.034Z,977.02
2023-03-27T08:21:03.148Z,977.04
2023-03-27T08:22:03.194Z,977.13
2023-03-27T08:23:03.156Z,977.01
2023-03-27T08:24:03.108Z,977.18
2023-03-27T08:25:03.121Z,977.21
2023-03-27T08:26:03.160Z,977.22
2023-03-27T08:27:03.149Z,977.19
2023-03-27T08:28:03.064Z,977.39
2023-03-27T08:29:03.070Z,977.40
2023-03-27T08:30:03.039Z,977.45
2023-03-27T08:31:03.713Z,977.26
2023-03-27T08:32:02.922Z,977.43
2023-03-27T08:33:03.106Z,977.29
2023-03-27T08:34:03.102Z,977.55
2023-03-27T08:35:03.102Z,977.49
2023-03-27T08:36:03.146Z,977.58
2023-03-27T08:37:02.970Z,977.49
2023-03-27T08:38:02.913Z,977.55
2023-03-27T08:39:03.000Z,977.44
2023-03-27T08:40:03.009Z,977.55
2023-03-27T08:41:02.995Z,977.52
2023-03-27T08:42:02.942Z,977.58
2023-03-27T08:43:03.002Z,977.46
2023-03-27T08:44:03.015Z,977.55
2023-03-27T08:45:03.077Z,977.50
2023-03-27T08:46:03.052Z,977.55
2023-03-27T08:47:02.980Z,977.59
2023-03-27T08:48:03.166Z,977.62
2023-03-27T08:49:03.161Z,977.62
2023-03-27T08:50:03.068Z,977.60
2023-03-27T08:51:03.163Z,977.70
2023-03-27T08:52:03.113Z,977.71
2023-03-27T08:53:03.203Z,977.65
2023-03-27T08:54:03.153Z,977.60
2023-03-27T08:55:03.109Z,977.68
2023-03-27T08:56:03.175Z,977.82
2023-03-27T08:57:03.303Z,977.74
2023-03-27T08:58:03.268Z,977.71
2023-03-27T08:59:03.164Z,977.82
2023-03-27T09:00:03.134Z,977.71
2023-03-27T09:01:03.253Z,977.82
2023-03-27T09:02:03.290Z,977.77
2023-03-27T09:03:03.362Z,977.77
2023-03-27T09:04:03.304Z,977.61
2023-03-27T09:05:03.278Z,977.58
2023-03-27T09:06:03.178Z,977.66
2023-03-27T09:07:03.151Z,977.69
2023-03-27T09:08:03.230Z,977.72
2023-03-27T09:09:03.122Z,977.58
2023-03-27T09:10:03.429Z,977.44
2023-03-27T09:11:03.300Z,977.69
2023-03-27T09:12:03.303Z,977.69
2023-03-27T09:13:03.333Z,977.69
2023-03-27T09:14:03.370Z,977.80
2023-03-27T09:15:03.206Z,977.66
2023-03-27T09:16:03.205Z,977.66
2023-03-27T09:17:03.318Z,977.72
2023-03-27T09:18:03.382Z,977.83
2023-03-27T09:19:03.400Z,977.52
2023-03-27T09:20:03.370Z,977.79
2023-03-27T09:21:03.316Z,977.57
2023-03-27T09:22:03.299Z,977.62
2023-03-27T09:23:03.368Z,977.72
2023-03-27T09:24:03.414Z,977.72
2023-03-27T09:25:03.396Z,977.69
2023-03-27T09:26:03.359Z,977.80
2023-03-27T09:27:07.951Z,977.74
2023-03-27T09:28:03.539Z,977.66
2023-03-27T09:29:03.389Z,977.77
2023-03-27T09:30:06.539Z,977.88
2023-03-27T09:31:03.574Z,977.80
2023-03-27T09:32:03.455Z,977.89
2023-03-27T09:33:03.660Z,977.86
2023-03-27T09:34:03.473Z,977.92
2023-03-27T09:35:03.568Z,977.98
2023-03-27T09:36:03.538Z,977.95
2023-03-27T09:37:03.576Z,977.86
2023-03-27T09:38:03.680Z,977.92
2023-03-27T09:39:03.687Z,978.06
2023-03-27T09:40:03.601Z,978.01
2023-03-27T09:41:03.605Z,978.09
2023-03-27T09:42:08.158Z,978.12
2023-03-27T09:43:03.628Z,978.07
2023-03-27T09:44:03.680Z,978.18
2023-03-27T09:45:03.647Z,978.15
2023-03-27T09:46:03.579Z,978.10
2023-03-27T09:47:03.687Z,977.98
2023-03-27T09:48:03.807Z,978.06
2023-03-27T09:49:03.712Z,978.03
2023-03-27T09:50:03.573Z,978.06
2023-03-27T09:51:03.599Z,977.86
2023-03-27T09:52:03.576Z,977.88
2023-03-27T09:53:03.507Z,977.99
2023-03-27T09:54:03.612Z,977.91
2023-03-27T09:55:03.553Z,977.88
2023-03-27T09:56:03.839Z,977.96
2023-03-27T09:57:03.653Z,977.96
2023-03-27T09:58:03.504Z,978.02
2023-03-27T09:59:03.542Z,977.99
2023-03-27T10:00:03.556Z,978.02
2023-03-27T10:01:03.672Z,978.05
2023-03-27T10:02:04.019Z,977.99
2023-03-27T10:03:03.901Z,978.13
2023-03-27T10:04:03.780Z,978.11
2023-03-27T10:05:03.804Z,978.05
2023-03-27T10:06:03.689Z,978.14
2023-03-27T10:07:03.860Z,978.23
2023-03-27T10:08:03.838Z,978.20
2023-03-27T10:09:03.925Z,978.15
2023-03-27T10:10:03.843Z,978.04
2023-03-27T10:11:03.912Z,978.21
2023-03-27T10:12:03.855Z,978.27
2023-03-27T10:13:03.947Z,978.18
2023-03-27T10:14:02.964Z,978.24
2023-03-27T10:15:03.873Z,978.21
2023-03-27T10:16:03.057Z,978.13
2023-03-27T10:17:03.030Z,978.30
2023-03-27T10:18:03.044Z,978.21
2023-03-27T10:19:03.054Z,978.29
2023-03-27T10:20:03.148Z,978.32
2023-03-27T10:21:03.092Z,978.27
2023-03-27T10:22:03.123Z,978.18
2023-03-27T10:23:03.162Z,978.44
2023-03-27T10:24:03.021Z,978.35
2023-03-27T10:25:03.039Z,978.38
2023-03-27T10:26:03.051Z,978.48
2023-03-27T10:27:02.958Z,978.35
2023-03-27T10:28:02.961Z,978.36
2023-03-27T10:29:03.013Z,978.33
2023-03-27T10:30:03.016Z,978.38
2023-03-27T10:31:02.987Z,978.41
2023-03-27T10:32:03.266Z,978.33
2023-03-27T10:33:03.218Z,978.24
2023-03-27T10:34:03.018Z,978.27
2023-03-27T10:35:02.948Z,978.16
2023-03-27T10:36:03.070Z,978.29
2023-03-27T10:37:02.913Z,978.24
2023-03-27T10:38:03.025Z,978.29
2023-03-27T10:39:02.964Z,978.15
2023-03-27T10:40:03.901Z,978.03
2023-03-27T10:41:02.960Z,978.09
2023-03-27T10:42:03.066Z,978.14
2023-03-27T10:43:02.985Z,978.16
2023-03-27T10:44:02.950Z,978.10
2023-03-27T10:45:03.005Z,978.13
2023-03-27T10:46:03.063Z,978.24
2023-03-27T10:47:03.178Z,978.23
2023-03-27T10:48:03.185Z,978.26
2023-03-27T10:49:02.971Z,978.26
2023-03-27T10:50:03.022Z,978.26
2023-03-27T10:51:02.999Z,978.40
2023-03-27T10:52:03.075Z,978.48
2023-03-27T10:53:03.074Z,978.44
2023-03-27T10:54:03.153Z,978.48
2023-03-27T10:55:02.975Z,978.57
2023-03-27T10:56:03.976Z,978.46
2023-03-27T10:57:03.161Z,978.38
2023-03-27T10:58:03.145Z,978.49
2023-03-27T10:59:03.085Z,978.46
2023-03-27T11:00:03.066Z,978.51
2023-03-27T11:01:03.173Z,978.60
2023-03-27T11:02:03.045Z,978.60
2023-03-27T11:03:03.080Z,978.57
2023-03-27T11:04:03.217Z,978.54
2023-03-27T11:05:03.024Z,978.51
2023-03-27T11:06:02.953Z,978.57
2023-03-27T11:07:02.985Z,978.45
2023-03-27T11:08:03.162Z,978.45
2023-03-27T11:09:03.114Z,978.48
2023-03-27T11:10:03.215Z,978.53
2023-03-27T11:11:03.190Z,978.59
2023-03-27T11:12:03.234Z,978.70
2023-03-27T11:13:03.090Z,978.55
2023-03-27T11:14:03.091Z,978.49
2023-03-27T11:15:03.039Z,978.80
2023-03-27T11:16:03.095Z,978.72
2023-03-27T11:17:03.315Z,978.75
2023-03-27T11:18:03.199Z,978.78
2023-03-27T11:19:03.055Z,978.94
2023-03-27T11:20:03.067Z,978.75
2023-03-27T11:21:03.954Z,978.94
2023-03-27T11:22:04.175Z,978.82
2023-03-27T11:23:03.841Z,978.91
2023-03-27T11:24:04.096Z,978.85
2023-03-27T11:25:03.866Z,978.90
2023-03-27T11:26:02.943Z,978.81
2023-03-27T11:27:03.974Z,978.78
2023-03-27T11:28:03.873Z,979.00
2023-03-27T11:29:03.863Z,978.89
2023-03-27T11:30:02.966Z,979.08
2023-03-27T11:31:13.407Z,978.91
2023-03-27T11:32:02.938Z,979.11
2023-03-27T11:33:03.070Z,979.14
2023-03-27T11:34:03.897Z,979.28
2023-03-27T11:35:04.801Z,979.28
2023-03-27T11:36:03.974Z,979.37
2023-03-27T11:37:03.899Z,979.20
2023-03-27T11:38:03.848Z,979.23
2023-03-27T11:39:03.923Z,979.29
2023-03-27T11:40:03.946Z,979.38
2023-03-27T11:41:03.909Z,979.58
2023-03-27T11:42:02.997Z,979.44
2023-03-27T11:43:03.084Z,979.50
2023-03-27T11:44:03.015Z,979.39
2023-03-27T11:45:03.069Z,979.53
2023-03-27T11:46:03.235Z,979.62
2023-03-27T11:47:03.049Z,979.62
2023-03-27T11:48:03.055Z,979.60
2023-03-27T11:49:03.119Z,979.66
2023-03-27T11:50:03.092Z,979.83
2023-03-27T11:51:03.066Z,979.80
2023-03-27T11:52:03.033Z,979.65
2023-03-27T11:53:03.123Z,979.45
2023-03-27T11:54:03.089Z,979.62
2023-03-27T11:55:03.041Z,979.73
2023-03-27T11:56:03.082Z,979.67
2023-03-27T11:57:03.217Z,979.73
2023-03-27T11:58:03.092Z,979.81
2023-03-27T11:59:02.977Z,979.76
2023-03-27T12:00:03.007Z,979.76
2023-03-27T12:01:02.988Z,979.95
2023-03-27T12:02:03.121Z,979.98
2023-03-27T12:03:03.117Z,979.89
2023-03-27T12:04:03.418Z,979.98
2023-03-27T12:05:03.064Z,979.95
2023-03-27T12:06:03.137Z,980.04
2023-03-27T12:07:06.046Z,980.15
2023-03-27T12:08:03.124Z,980.26
2023-03-27T12:09:03.070Z,980.05
2023-03-27T12:10:03.121Z,980.02
2023-03-27T12:11:03.133Z,980.02
2023-03-27T12:12:03.133Z,979.86
2023-03-27T12:13:03.266Z,979.81
2023-03-27T12:15:03.170Z,979.82
2023-03-27T12:16:03.265Z,979.86
2023-03-27T12:17:03.247Z,979.79
2023-03-27T12:18:03.385Z,979.65
2023-03-27T12:19:27.333Z,979.57
2023-03-27T12:20:03.299Z,979.74
2023-03-27T12:21:04.039Z,979.71
2023-03-27T12:22:22.727Z,979.56
2023-03-27T12:23:03.207Z,979.42
2023-03-27T12:24:03.256Z,979.54
2023-03-27T12:25:03.264Z,979.51
2023-03-27T12:26:03.272Z,979.53
2023-03-27T12:27:04.132Z,979.56
2023-03-27T12:28:03.352Z,979.48
2023-03-27T12:29:24.380Z,979.56